createdAt,value
2022-11-15T00:00:16.876Z,7.15
2022-11-15T00:05:37.500Z,7.13
2022-11-15T00:10:59.661Z,7.13
2022-11-15T00:16:20.073Z,7.14
2022-11-15T00:21:40.313Z,7.15
2022-11-15T00:27:01.066Z,7.18
2022-11-15T00:32:21.536Z,7.20
2022-11-15T00:37:41.917Z,7.21
2022-11-15T00:43:02.517Z,7.23
2022-11-15T00:48:23.559Z,7.23
2022-11-15T00:53:43.952Z,7.22
2022-11-15T00:59:04.300Z,7.22
2022-11-15T01:04:24.560Z,7.23
2022-11-15T01:09:44.807Z,7.25
2022-11-15T01:15:06.523Z,7.26
2022-11-15T01:20:26.829Z,7.28
2022-11-15T01:25:47.219Z,7.31
2022-11-15T01:31:13.285Z,7.32
2022-11-15T01:36:33.982Z,7.30
2022-11-15T01:41:54.551Z,7.27
2022-11-15T01:47:21.909Z,7.27
2022-11-15T01:52:43.842Z,7.32
2022-11-15T01:58:06.680Z,7.45
2022-11-15T02:03:37.934Z,7.57
2022-11-15T02:08:59.380Z,7.61
2022-11-15T02:14:21.763Z,7.58
2022-11-15T02:20:06.585Z,7.52
2022-11-15T02:25:50.348Z,7.40
2022-11-15T02:31:19.582Z,7.29
2022-11-15T02:36:47.128Z,7.25
2022-11-15T02:42:34.872Z,7.23
2022-11-15T02:47:59.390Z,7.16
2022-11-15T02:53:25.401Z,7.06
2022-11-15T02:59:22.732Z,7.01
2022-11-15T03:04:54.242Z,6.98
2022-11-15T03:10:25.900Z,6.97
2022-11-15T03:16:03.897Z,6.95
2022-11-15T03:21:26.157Z,6.92
2022-11-15T03:26:49.252Z,6.92
2022-11-15T03:32:16.598Z,6.87
2022-11-15T03:38:14.398Z,6.85
2022-11-15T03:43:43.024Z,6.85
2022-11-15T03:49:15.264Z,6.83
2022-11-15T03:54:36.020Z,6.81
2022-11-15T03:59:56.289Z,6.83
2022-11-15T04:05:16.838Z,6.83
2022-11-15T04:10:37.136Z,6.81
2022-11-15T04:15:57.707Z,6.79
2022-11-15T04:21:36.330Z,6.78
2022-11-15T04:26:56.576Z,6.78
2022-11-15T04:32:16.947Z,6.75
2022-11-15T04:37:37.342Z,6.77
2022-11-15T04:43:03.368Z,6.79
2022-11-15T04:48:26.799Z,6.79
2022-11-15T04:53:47.182Z,6.80
2022-11-15T04:59:07.449Z,6.78
2022-11-15T05:04:28.227Z,6.77
2022-11-15T05:09:48.605Z,6.74
2022-11-15T05:15:09.934Z,6.73
2022-11-15T05:20:30.337Z,6.69
2022-11-15T05:25:50.596Z,6.67
2022-11-15T05:31:14.649Z,6.65
2022-11-15T05:36:39.282Z,6.66
2022-11-15T05:42:11.807Z,6.65
2022-11-15T05:47:33.015Z,6.63
2022-11-15T05:52:53.486Z,6.61
2022-11-15T05:58:13.927Z,6.58
2022-11-15T06:03:34.724Z,6.57
2022-11-15T06:08:55.237Z,6.57
2022-11-15T06:14:15.963Z,6.58
2022-11-15T06:19:36.563Z,6.58
2022-11-15T06:25:00.240Z,6.59
2022-11-15T06:30:26.965Z,6.59
2022-11-15T06:35:47.650Z,6.59
2022-11-15T06:41:11.395Z,6.60
2022-11-15T06:46:32.412Z,6.62
2022-11-15T06:51:53.191Z,6.66
2022-11-15T06:57:13.363Z,6.70
2022-11-15T07:02:33.603Z,6.71
2022-11-15T07:07:59.172Z,6.75
2022-11-15T07:13:19.928Z,6.78
2022-11-15T07:18:42.088Z,6.86
2022-11-15T07:24:02.410Z,6.92
2022-11-15T07:29:22.403Z,6.98
2022-11-15T07:34:42.952Z,7.06
2022-11-15T07:40:03.884Z,7.13
2022-11-15T07:45:27.531Z,7.22
2022-11-15T07:50:48.571Z,7.32
2022-11-15T07:56:09.461Z,7.42
2022-11-15T08:01:30.339Z,7.54
2022-11-15T08:06:51.162Z,7.64
2022-11-15T08:12:11.868Z,7.75
2022-11-15T08:17:34.072Z,7.85
2022-11-15T08:22:54.631Z,7.96
2022-11-15T08:28:18.774Z,8.08
2022-11-15T08:33:39.472Z,8.19
2022-11-15T08:39:00.394Z,8.33
2022-11-15T08:44:20.604Z,8.48
2022-11-15T08:49:41.111Z,8.60
2022-11-15T08:55:01.781Z,8.71
2022-11-15T09:00:22.547Z,8.81
2022-11-15T09:05:44.216Z,8.94
2022-11-15T09:11:09.652Z,9.08
2022-11-15T09:16:32.248Z,9.25
2022-11-15T09:21:52.960Z,9.90
2022-11-15T09:27:14.413Z,9.98
2022-11-15T09:32:39.022Z,9.94
2022-11-15T09:38:00.413Z,9.94
2022-11-15T09:43:42.720Z,10.00
2022-11-15T09:49:04.377Z,10.08
2022-11-15T09:54:53.780Z,10.16
2022-11-15T10:00:23.945Z,10.22
2022-11-15T10:05:26.453Z,10.30
2022-11-15T10:10:40.083Z,10.40
2022-11-15T10:15:46.675Z,10.46
2022-11-15T10:21:00.492Z,10.50
2022-11-15T10:26:06.883Z,10.45
2022-11-15T10:31:30.132Z,10.43
2022-11-15T10:36:33.530Z,10.38
2022-11-15T10:41:41.516Z,10.34
2022-11-15T10:46:47.440Z,10.36
2022-11-15T10:51:54.065Z,10.37
2022-11-15T10:57:02.162Z,10.41
2022-11-15T11:02:24.038Z,10.44
2022-11-15T11:07:29.998Z,10.46
2022-11-15T11:12:34.322Z,10.49
2022-11-15T11:17:54.824Z,10.57
2022-11-15T11:23:41.357Z,10.65
2022-11-15T11:28:49.793Z,10.70
2022-11-15T11:34:30.776Z,10.69
2022-11-15T11:39:52.685Z,10.70
2022-11-15T11:45:33.003Z,10.71
2022-11-15T11:50:38.264Z,10.75
2022-11-15T11:55:54.235Z,10.75
2022-11-15T12:01:21.328Z,10.69
2022-11-15T12:06:43.693Z,10.64
2022-11-15T12:11:48.314Z,10.61
2022-11-15T12:16:51.158Z,10.60
2022-11-15T12:22:04.290Z,10.60
2022-11-15T12:27:28.576Z,10.63
2022-11-15T12:32:34.938Z,10.61
2022-11-15T12:37:39.895Z,10.57
2022-11-15T12:42:58.350Z,10.57
2022-11-15T12:48:18.610Z,10.56
2022-11-15T12:53:26.591Z,10.53
2022-11-15T12:58:53.730Z,10.54
2022-11-15T13:04:20.650Z,10.54
2022-11-15T13:09:33.039Z,10.45
2022-11-15T13:14:45.856Z,10.37
2022-11-15T13:19:53.571Z,10.31
2022-11-15T13:24:56.275Z,10.27
2022-11-15T13:29:58.552Z,10.22
2022-11-15T13:35:02.982Z,10.20
2022-11-15T13:40:22.788Z,10.15
2022-11-15T13:45:25.816Z,10.11
2022-11-15T13:50:37.759Z,10.06
2022-11-15T13:55:39.709Z,10.02
2022-11-15T14:00:46.240Z,9.96
2022-11-15T14:06:13.218Z,9.87
2022-11-15T14:11:19.387Z,9.79
2022-11-15T14:16:22.754Z,9.72
2022-11-15T14:21:24.996Z,9.65
2022-11-15T14:26:32.987Z,9.60
2022-11-15T14:31:38.649Z,9.56
2022-11-15T14:36:45.835Z,9.48
2022-11-15T14:41:47.821Z,9.40
2022-11-15T14:46:50.127Z,9.31
2022-11-15T14:51:52.130Z,9.24
2022-11-15T14:56:54.341Z,9.15
2022-11-15T15:01:56.534Z,9.06
2022-11-15T15:06:58.633Z,8.97
2022-11-15T15:12:06.009Z,8.89
2022-11-15T15:17:08.805Z,8.81
2022-11-15T15:22:22.775Z,8.72
2022-11-15T15:27:27.292Z,8.62
2022-11-15T15:32:29.302Z,8.58
2022-11-15T15:37:34.169Z,8.50
2022-11-15T15:42:36.123Z,8.43
2022-11-15T15:47:38.952Z,8.39
2022-11-15T15:52:40.772Z,8.33
2022-11-15T15:57:42.801Z,8.26
2022-11-15T16:02:44.892Z,8.21
2022-11-15T16:07:48.783Z,8.16
2022-11-15T16:12:50.850Z,8.11
2022-11-15T16:17:55.608Z,8.06
2022-11-15T16:22:57.801Z,8.01
2022-11-15T16:27:59.846Z,7.97
2022-11-15T16:33:01.867Z,7.92
2022-11-15T16:38:03.698Z,7.86
2022-11-15T16:43:06.784Z,7.80
2022-11-15T16:48:20.807Z,7.72
2022-11-15T16:53:23.762Z,7.63
2022-11-15T16:58:26.112Z,7.57
2022-11-15T17:03:28.854Z,7.48
2022-11-15T17:08:31.250Z,7.40
2022-11-15T17:13:36.414Z,7.34
2022-11-15T17:18:39.077Z,7.30
2022-11-15T17:23:41.120Z,7.27
2022-11-15T17:28:43.117Z,7.24
2022-11-15T17:33:45.043Z,7.20
2022-11-15T17:38:50.525Z,7.15
2022-11-15T17:43:53.152Z,7.14
2022-11-15T17:48:56.447Z,7.21
2022-11-15T17:53:58.697Z,7.24
2022-11-15T17:59:01.291Z,7.22
2022-11-15T18:04:08.060Z,7.10
2022-11-15T18:09:09.910Z,7.00
2022-11-15T18:14:14.766Z,6.96
2022-11-15T18:19:16.693Z,6.92
2022-11-15T18:24:18.554Z,6.86
2022-11-15T18:29:21.952Z,6.79
2022-11-15T18:34:27.195Z,6.73
2022-11-15T18:39:29.496Z,6.67
2022-11-15T18:44:31.500Z,6.63
2022-11-15T18:49:33.452Z,6.57
2022-11-15T18:54:35.309Z,6.53
2022-11-15T18:59:37.412Z,6.47
2022-11-15T19:04:39.612Z,6.43
2022-11-15T19:09:41.537Z,6.41
2022-11-15T19:14:43.643Z,6.36
2022-11-15T19:19:45.558Z,6.35
2022-11-15T19:24:47.554Z,6.30
2022-11-15T19:29:49.554Z,6.29
2022-11-15T19:34:51.302Z,6.26
2022-11-15T19:39:53.128Z,6.25
2022-11-15T19:44:55.083Z,6.27
2022-11-15T19:49:56.822Z,6.31
2022-11-15T19:54:58.818Z,6.39
2022-11-15T20:00:06.792Z,6.35
2022-11-15T20:05:12.918Z,6.29
2022-11-15T20:10:20.691Z,6.21
2022-11-15T20:15:22.947Z,6.16
2022-11-15T20:20:25.561Z,6.16
2022-11-15T20:25:27.459Z,6.20
2022-11-15T20:30:29.285Z,6.24
2022-11-15T20:35:31.270Z,6.26
2022-11-15T20:40:33.324Z,6.18
2022-11-15T20:45:35.177Z,6.10
2022-11-15T20:50:42.664Z,6.03
2022-11-15T20:55:47.977Z,5.99
2022-11-15T21:00:50.144Z,5.93
2022-11-15T21:05:53.996Z,5.94
2022-11-15T21:11:14.420Z,5.94
2022-11-15T21:16:17.246Z,5.95
2022-11-15T21:21:19.078Z,5.91
2022-11-15T21:26:20.867Z,5.90
2022-11-15T21:31:23.083Z,5.91
2022-11-15T21:36:25.288Z,5.92
2022-11-15T21:41:27.406Z,5.90
2022-11-15T21:46:30.377Z,5.90
2022-11-15T21:51:32.590Z,5.92
2022-11-15T21:56:34.397Z,5.89
2022-11-15T22:01:54.666Z,5.86
2022-11-15T22:06:56.553Z,5.75
2022-11-15T22:11:58.380Z,5.70
2022-11-15T22:17:00.301Z,5.69
2022-11-15T22:22:02.193Z,5.69
2022-11-15T22:27:04.207Z,5.71
2022-11-15T22:32:06.045Z,5.72
2022-11-15T22:37:20.592Z,5.74
2022-11-15T22:42:24.110Z,5.73
2022-11-15T22:47:28.122Z,5.72
2022-11-15T22:52:30.001Z,5.70
2022-11-15T22:57:31.885Z,5.71
2022-11-15T23:02:33.714Z,5.71
2022-11-15T23:07:35.655Z,5.68
2022-11-15T23:12:56.051Z,5.67
2022-11-15T23:17:57.961Z,5.67
2022-11-15T23:22:59.911Z,5.65
2022-11-15T23:28:05.658Z,5.67
2022-11-15T23:33:31.405Z,5.70
2022-11-15T23:38:37.367Z,5.73
2022-11-15T23:43:39.290Z,5.76
2022-11-15T23:48:41.176Z,5.77
2022-11-15T23:53:43.169Z,5.78
2022-11-15T23:58:46.155Z,5.81
